Time;durP1;ratioP1;P1;durP2;ratioP2;P2;SDS_P1;SDS_P2;PMS_P1;PMS_P2;Temp;Humidity;BMP_temperature;BMP_pressure;BME280_temperature;BME280_humidity;BME280_pressure;Samples;Min_cycle;Max_cycle;Signal;HPM_P1;HPM_P2
2022/05/05 00:02:13;;;;;;;8.43;7.60;;;;;;;14.11;58.35;101035.44;7391486;19;20025;-66
2022/05/05 00:04:44;;;;;;;13.25;7.38;;;;;;;14.08;58.24;101032.91;7391396;19;20022;-67
2022/05/05 00:07:12;;;;;;;8.02;7.10;;;;;;;14.07;58.58;101040.88;7391955;19;20014;-67
2022/05/05 00:09:40;;;;;;;8.77;7.20;;;;;;;14.06;58.66;101036.50;7391908;19;20031;-66
2022/05/05 00:14:51;;;;;;;9.48;6.72;;;;;;;14.02;58.97;101033.97;7393552;19;20018;-67
2022/05/05 00:17:19;;;;;;;8.27;6.90;;;;;;;13.98;59.28;101039.41;7392844;19;20388;-66
2022/05/05 00:19:49;;;;;;;10.48;7.05;;;;;;;13.93;59.70;101043.94;7392811;19;20051;-65
2022/05/05 00:22:18;;;;;;;8.05;7.18;;;;;;;13.86;59.90;101043.25;7398951;19;20031;-66
2022/05/05 00:24:46;;;;;;;7.53;6.80;;;;;;;13.81;59.90;101037.25;7400001;19;20027;-67
2022/05/05 00:27:14;;;;;;;8.32;6.68;;;;;;;13.72;60.43;101041.03;7400365;19;20035;-66
2022/05/05 00:29:42;;;;;;;8.13;7.32;;;;;;;13.70;60.67;101045.53;7399802;19;20022;-66
2022/05/05 00:32:11;;;;;;;9.38;6.88;;;;;;;13.65;61.01;101043.00;7400659;19;20018;-66
2022/05/05 00:34:39;;;;;;;8.90;6.68;;;;;;;13.60;61.43;101038.78;7400092;19;20022;-66
2022/05/05 00:37:10;;;;;;;7.28;6.63;;;;;;;13.58;61.51;101041.44;7399706;19;20371;-67
2022/05/05 00:39:38;;;;;;;10.00;7.00;;;;;;;13.55;61.52;101041.56;7400047;19;20034;-65
2022/05/05 00:42:12;;;;;;;8.48;6.07;;;;;;;13.51;62.31;101038.16;7399809;19;20022;-66
2022/05/05 00:44:41;;;;;;;9.70;6.28;;;;;;;13.49;62.24;101047.84;7400069;19;20027;-66
2022/05/05 00:47:10;;;;;;;15.48;7.88;;;;;;;13.46;62.63;101047.09;7397329;19;20015;-66
2022/05/05 00:49:38;;;;;;;8.77;7.20;;;;;;;13.42;63.00;101056.00;7399251;19;20031;-67
2022/05/05 00:52:10;;;;;;;7.18;6.40;;;;;;;13.38;63.08;101052.56;7399460;19;20019;-67
2022/05/05 00:54:39;;;;;;;11.07;6.72;;;;;;;13.36;62.98;101052.59;7399096;19;20388;-66
2022/05/05 00:57:07;;;;;;;8.60;6.78;;;;;;;13.35;63.29;101052.63;7399281;19;20018;-66
2022/05/05 00:59:36;;;;;;;7.45;6.00;;;;;;;13.32;63.80;101061.50;7397274;19;20019;-66
2022/05/05 01:02:05;;;;;;;9.27;6.88;;;;;;;13.29;64.02;101065.97;7399774;19;20422;-66
2022/05/05 01:04:41;;;;;;;8.00;5.85;;;;;;;13.26;64.38;101055.53;7400414;19;20027;-66
2022/05/05 01:07:12;;;;;;;9.02;8.13;;;;;;;13.24;64.17;101057.34;7398038;19;20026;-67
2022/05/05 01:09:41;;;;;;;9.52;7.25;;;;;;;13.23;64.29;101068.78;7397737;19;20015;-66
2022/05/05 01:12:11;;;;;;;7.82;6.22;;;;;;;13.19;65.01;101076.78;7396557;19;20036;-66
2022/05/05 01:14:39;;;;;;;12.75;6.50;;;;;;;13.17;65.62;101067.19;7396680;19;20006;-66
2022/05/05 01:17:08;;;;;;;7.05;5.80;;;;;;;13.15;64.53;101077.75;7396540;19;20015;-67
2022/05/05 01:19:37;;;;;;;15.07;11.75;;;;;;;13.13;65.17;101074.31;7398294;19;20427;-66
2022/05/05 01:22:08;;;;;;;15.35;12.25;;;;;;;13.12;64.92;101079.63;7398179;19;20485;-67
2022/05/05 01:29:57;;;;;;;11.65;7.40;;;;;;;13.09;64.93;101088.47;7397906;19;20092;-66
2022/05/05 01:32:33;;;;;;;7.38;6.40;;;;;;;13.08;65.29;101085.88;7394505;19;20631;-67
2022/05/05 01:35:01;;;;;;;7.68;6.00;;;;;;;13.03;65.31;101097.41;7398858;19;20022;-66
2022/05/05 01:37:32;;;;;;;8.55;6.10;;;;;;;13.02;65.68;101094.81;7395602;19;20506;-66
2022/05/05 01:40:00;;;;;;;8.18;5.13;;;;;;;13.01;65.40;101093.06;7397549;19;20018;-66
2022/05/05 01:42:28;;;;;;;9.38;6.00;;;;;;;13.01;65.89;101109.72;7397480;19;20481;-67
2022/05/05 01:44:56;;;;;;;11.93;5.63;;;;;;;12.99;66.83;101108.94;7397719;19;20035;-67
2022/05/05 01:47:24;;;;;;;6.72;5.93;;;;;;;12.98;66.06;101114.25;7395756;19;20026;-67
2022/05/05 01:49:53;;;;;;;7.15;5.70;;;;;;;12.96;66.58;101122.16;7397117;19;20022;-66
2022/05/05 01:52:21;;;;;;;8.63;6.10;;;;;;;12.93;66.49;101109.09;7397572;19;20018;-66
2022/05/05 01:54:51;;;;;;;10.70;6.13;;;;;;;12.92;67.46;101114.41;7397781;19;20022;-66
2022/05/05 01:57:20;;;;;;;12.45;6.57;;;;;;;12.90;67.45;101116.19;7397750;19;20019;-66
2022/05/05 01:59:48;;;;;;;6.88;5.78;;;;;;;12.85;68.21;101122.44;7395228;19;20014;-66
2022/05/05 02:02:16;;;;;;;10.75;6.95;;;;;;;12.81;68.11;101115.50;7395406;19;20039;-67
2022/05/05 02:04:44;;;;;;;8.10;6.22;;;;;;;12.76;68.44;101113.91;7395229;19;20026;-67
2022/05/05 02:07:19;;;;;;;12.05;6.63;;;;;;;12.64;69.77;101123.00;7396632;19;20031;-67
2022/05/05 02:09:47;;;;;;;9.30;6.63;;;;;;;12.59;69.73;101132.75;7396880;19;20026;-65
2022/05/05 02:12:17;;;;;;;7.90;5.82;;;;;;;12.50;70.50;101136.47;7396846;19;20022;-67
2022/05/05 02:14:45;;;;;;;9.70;6.10;;;;;;;12.44;70.13;101141.88;7395504;19;20014;-66
2022/05/05 02:17:14;;;;;;;11.40;6.60;;;;;;;12.43;70.52;101148.88;7397307;19;20014;-67
2022/05/05 02:19:42;;;;;;;9.75;6.80;;;;;;;12.41;70.73;101148.06;7396925;19;20385;-66
2022/05/05 02:22:11;;;;;;;10.68;6.88;;;;;;;12.37;71.36;101138.50;7395323;19;20019;-67
2022/05/05 02:24:39;;;;;;;9.95;6.50;;;;;;;12.32;71.49;101138.63;7396372;19;20018;-67
2022/05/05 02:27:08;;;;;;;11.43;6.45;;;;;;;12.28;71.50;101136.94;7394546;19;20018;-67
2022/05/05 02:29:38;;;;;;;8.27;6.85;;;;;;;12.23;72.03;101128.28;7395989;19;20492;-67
2022/05/05 02:32:07;;;;;;;10.35;6.95;;;;;;;12.17;72.42;101131.94;7396506;19;20019;-66
2022/05/05 02:34:35;;;;;;;9.70;7.32;;;;;;;12.11;72.80;101125.97;7395991;19;20105;-66
2022/05/05 02:39:44;;;;;;;11.15;7.60;;;;;;;11.99;73.75;101119.19;7395421;19;20547;-66
2022/05/05 02:42:13;;;;;;;10.77;7.50;;;;;;;11.90;75.03;101112.31;7395949;19;20031;-67
2022/05/05 02:44:43;;;;;;;11.10;7.32;;;;;;;11.84;75.33;101122.97;7391511;19;20022;-67
2022/05/05 02:47:12;;;;;;;8.77;7.65;;;;;;;11.77;75.24;101114.34;7394856;19;20022;-66
2022/05/05 02:49:40;;;;;;;11.18;7.60;;;;;;;11.74;75.37;101122.31;7393658;19;20018;-66
2022/05/05 02:52:10;;;;;;;10.68;7.85;;;;;;;11.71;75.74;101120.63;7395505;19;20041;-66
2022/05/05 02:54:51;;;;;;;10.73;7.53;;;;;;;11.71;76.10;101118.00;7393805;19;20027;-66
2022/05/05 02:57:20;;;;;;;9.98;7.65;;;;;;;11.69;76.38;101111.88;7394100;19;20038;-66
2022/05/05 02:59:53;;;;;;;10.15;8.02;;;;;;;11.67;76.80;101103.16;7395094;19;20138;-66
2022/05/05 03:02:21;;;;;;;10.90;8.48;;;;;;;11.66;77.08;101111.94;7393765;19;20025;-66
2022/05/05 03:04:50;;;;;;;11.63;7.95;;;;;;;11.63;77.56;101108.53;7393531;19;20026;-66
2022/05/05 03:07:18;;;;;;;10.13;7.53;;;;;;;11.57;77.98;101107.75;7393011;19;20481;-66
2022/05/05 03:09:46;;;;;;;12.82;8.40;;;;;;;11.54;77.82;101105.16;7393977;19;20035;-65
2022/05/05 03:12:15;;;;;;;15.55;8.75;;;;;;;11.50;78.47;101108.75;7393406;19;20031;-66
2022/05/05 03:14:44;;;;;;;13.23;8.23;;;;;;;11.47;78.48;101106.19;7395003;19;20035;-67
2022/05/05 03:17:14;;;;;;;11.73;8.18;;;;;;;11.44;78.71;101101.00;7393193;19;20018;-67
2022/05/05 03:19:42;;;;;;;11.90;8.00;;;;;;;11.42;79.17;101097.53;7394992;19;20023;-66
2022/05/05 03:22:11;;;;;;;11.35;8.35;;;;;;;11.40;79.75;101097.56;7394819;19;20487;-67
2022/05/05 03:24:39;;;;;;;12.07;8.25;;;;;;;11.37;79.86;101092.38;7394634;19;20022;-66
2022/05/05 03:27:08;;;;;;;13.35;8.85;;;;;;;11.35;79.90;101098.56;7393241;19;20031;-66
2022/05/05 03:29:36;;;;;;;14.32;9.38;;;;;;;11.34;80.09;101099.44;7394261;19;20031;-67
2022/05/05 03:32:04;;;;;;;11.70;8.82;;;;;;;11.33;79.64;101108.22;7394152;19;20018;-67
2022/05/05 03:34:35;;;;;;;9.48;8.48;;;;;;;11.33;80.23;101116.09;7394184;19;20018;-67
2022/05/05 03:37:03;;;;;;;11.85;8.32;;;;;;;11.32;79.80;101117.00;7391689;19;20351;-66
2022/05/05 03:39:31;;;;;;;12.55;9.63;;;;;;;11.33;79.86;101129.25;7393328;19;20431;-67
2022/05/05 03:41:59;;;;;;;10.65;8.40;;;;;;;11.33;80.75;101145.84;7393690;19;20031;-67
2022/05/05 03:44:27;;;;;;;15.27;8.75;;;;;;;11.33;81.16;101151.09;7391533;19;20031;-66
2022/05/05 03:46:55;;;;;;;12.20;8.90;;;;;;;11.31;81.35;101149.41;7392212;19;20104;-67
2022/05/05 03:49:24;;;;;;;15.15;10.15;;;;;;;11.30;81.88;101158.16;7391637;19;20040;-67
2022/05/05 03:51:55;;;;;;;13.25;9.15;;;;;;;11.28;81.88;101159.97;7392941;19;20486;-67
2022/05/05 03:54:24;;;;;;;15.10;9.70;;;;;;;11.24;82.02;101161.78;7391518;19;20022;-67
2022/05/05 03:56:52;;;;;;;12.70;10.40;;;;;;;11.22;82.64;101174.06;7401257;19;20368;-67
2022/05/05 03:59:22;;;;;;;19.85;10.60;;;;;;;11.19;82.27;101177.63;7400153;19;20507;-66
2022/05/05 04:01:50;;;;;;;15.15;9.63;;;;;;;11.18;82.85;101177.66;7397804;19;20370;-67
2022/05/05 04:04:19;;;;;;;13.75;10.27;;;;;;;11.17;82.30;101175.91;7397884;19;20022;-67
2022/05/05 04:06:48;;;;;;;15.05;10.80;;;;;;;11.17;83.57;101184.69;7398924;19;20015;-67
2022/05/05 04:09:19;;;;;;;14.38;11.02;;;;;;;11.15;82.62;101180.34;7399076;19;20485;-68
2022/05/05 04:11:47;;;;;;;13.85;11.30;;;;;;;11.15;82.83;101182.97;7397752;19;20039;-67
2022/05/05 04:14:15;;;;;;;15.52;11.77;;;;;;;11.15;83.53;101185.59;7397728;19;20019;-67
2022/05/05 04:16:43;;;;;;;14.75;11.45;;;;;;;11.14;83.06;101184.72;7397888;19;20019;-67
2022/05/05 04:19:11;;;;;;;18.60;11.82;;;;;;;11.13;82.98;101195.25;7400160;19;20145;-67
2022/05/05 04:21:39;;;;;;;14.65;10.57;;;;;;;11.13;83.29;101193.47;7397425;19;20031;-67
2022/05/05 04:24:09;;;;;;;17.98;10.82;;;;;;;11.14;83.61;101207.50;7400140;19;20023;-67
2022/05/05 04:26:41;;;;;;;16.63;10.70;;;;;;;11.13;83.78;101211.84;7397009;19;20039;-67
2022/05/05 04:29:11;;;;;;;17.35;11.40;;;;;;;11.13;83.80;101211.00;7400061;19;20031;-67
2022/05/05 04:31:39;;;;;;;12.95;10.70;;;;;;;11.11;84.44;101208.41;7396935;19;20018;-67
2022/05/05 04:34:08;;;;;;;14.73;11.40;;;;;;;11.06;84.88;101224.22;7396338;19;20026;-67
2022/05/05 04:36:36;;;;;;;17.73;11.77;;;;;;;11.04;85.73;101222.53;7396687;19;20032;-66
2022/05/05 04:39:05;;;;;;;16.65;10.70;;;;;;;11.02;85.88;101226.91;7398817;19;20498;-67
2022/05/05 04:41:34;;;;;;;14.70;10.85;;;;;;;10.99;84.90;101222.59;7397270;19;20027;-67
2022/05/05 04:44:05;;;;;;;13.65;10.35;;;;;;;11.01;85.64;101230.47;7399606;19;20035;-67
2022/05/05 04:46:33;;;;;;;15.93;11.75;;;;;;;11.00;84.50;101228.72;7398896;19;20423;-67
2022/05/05 04:49:01;;;;;;;11.93;10.25;;;;;;;11.01;84.19;101233.94;7396824;19;20014;-67
2022/05/05 04:51:29;;;;;;;13.32;10.73;;;;;;;11.04;84.12;101240.91;7396331;19;20026;-67
2022/05/05 04:53:57;;;;;;;16.23;11.07;;;;;;;11.08;84.24;101242.59;7395833;19;20018;-67
2022/05/05 04:56:26;;;;;;;17.63;10.30;;;;;;;11.15;84.09;101251.25;7397849;19;20031;-67
2022/05/05 04:58:54;;;;;;;13.25;10.88;;;;;;;11.18;83.83;101259.91;7396906;19;20399;-67
2022/05/05 05:01:24;;;;;;;15.98;11.20;;;;;;;11.23;83.54;101257.22;7395318;19;20028;-66
2022/05/05 05:03:53;;;;;;;12.25;10.20;;;;;;;11.27;83.60;101258.91;7394841;19;20404;-66
2022/05/05 05:06:21;;;;;;;14.52;11.20;;;;;;;11.29;83.64;101262.38;7394332;19;20011;-63
2022/05/05 05:08:49;;;;;;;16.55;10.98;;;;;;;11.32;83.71;101264.09;7397715;19;20027;-64
2022/05/05 05:11:17;;;;;;;14.23;10.95;;;;;;;11.35;83.60;101256.19;7395480;19;20475;-64
2022/05/05 05:13:45;;;;;;;18.13;11.85;;;;;;;11.37;83.62;101259.63;7397902;19;20372;-64
2022/05/05 05:16:13;;;;;;;19.27;12.38;;;;;;;11.39;83.47;101265.72;7398336;19;20018;-65
2022/05/05 05:18:44;;;;;;;19.08;11.00;;;;;;;11.41;83.40;101261.31;7396114;19;20026;-66
2022/05/05 05:21:12;;;;;;;14.68;11.18;;;;;;;11.44;83.58;101261.28;7393862;19;20035;-65
2022/05/05 05:23:40;;;;;;;16.88;11.25;;;;;;;11.47;83.16;101265.59;7396797;19;20038;-65
2022/05/05 05:26:08;;;;;;;14.40;10.55;;;;;;;11.50;83.09;101261.16;7396788;19;20485;-64
2022/05/05 05:28:36;;;;;;;14.63;10.90;;;;;;;11.53;83.20;101261.09;7394707;19;20395;-66
2022/05/05 05:31:04;;;;;;;13.80;10.55;;;;;;;11.55;82.88;101259.31;7395495;19;20042;-65
2022/05/05 05:33:32;;;;;;;13.50;11.27;;;;;;;11.58;82.85;101261.03;7394325;19;20513;-66
2022/05/05 05:36:03;;;;;;;14.32;10.50;;;;;;;11.60;82.79;101258.38;7396022;19;20430;-65
2022/05/05 05:38:32;;;;;;;15.73;10.52;;;;;;;11.62;82.61;101253.97;7396410;19;20014;-65
2022/05/05 05:41:00;;;;;;;18.25;11.00;;;;;;;11.65;82.32;101253.88;7394831;19;20475;-65
2022/05/05 05:43:28;;;;;;;18.33;10.55;;;;;;;11.70;82.20;101267.81;7394060;19;20387;-65
2022/05/05 05:45:56;;;;;;;13.50;10.23;;;;;;;11.74;82.29;101272.16;7397005;19;20023;-65
2022/05/05 05:48:24;;;;;;;15.00;10.98;;;;;;;11.79;82.04;101270.28;7395335;19;20027;-65
2022/05/05 05:50:52;;;;;;;18.10;11.38;;;;;;;11.85;81.49;101282.44;7395751;19;20436;-65
2022/05/05 05:53:23;;;;;;;16.17;9.98;;;;;;;11.93;81.54;101274.41;7396656;19;20011;-65
2022/05/05 05:55:51;;;;;;;14.18;11.50;;;;;;;11.99;81.16;101274.34;7397500;19;20039;-65
2022/05/05 05:58:19;;;;;;;19.02;9.63;;;;;;;12.08;81.28;101281.19;7396273;19;20430;-65
2022/05/05 06:00:47;;;;;;;15.38;9.80;;;;;;;12.13;80.98;101282.84;7394870;19;20027;-65
2022/05/05 06:05:56;;;;;;;14.45;9.98;;;;;;;12.22;80.18;101292.31;7395946;19;20489;-65
2022/05/05 06:08:27;;;;;;;12.30;10.38;;;;;;;12.25;79.91;101301.91;7394469;19;20101;-65
2022/05/05 06:10:55;;;;;;;13.68;9.70;;;;;;;12.28;79.83;101317.63;7394394;19;20068;-65
2022/05/05 06:13:23;;;;;;;14.20;10.25;;;;;;;12.29;79.67;101320.22;7394362;19;20093;-65
2022/05/05 06:15:51;;;;;;;12.48;9.55;;;;;;;12.34;79.52;101312.25;7394780;19;20019;-65
2022/05/05 06:18:20;;;;;;;12.48;9.60;;;;;;;12.38;79.31;101320.06;7396815;19;20030;-64
2022/05/05 06:20:48;;;;;;;13.98;11.00;;;;;;;12.40;79.63;101317.38;7394964;19;20484;-65
2022/05/05 06:23:17;;;;;;;20.88;12.13;;;;;;;12.45;79.64;101319.91;7395444;19;20022;-66
2022/05/05 06:25:48;;;;;;;17.50;11.43;;;;;;;12.46;79.78;101321.63;7394776;19;20032;-65
2022/05/05 06:28:16;;;;;;;18.27;12.90;;;;;;;12.47;79.86;101313.75;7394851;19;20018;-65
2022/05/05 06:30:44;;;;;;;20.95;15.57;;;;;;;12.49;79.86;101329.50;7394238;19;20478;-65
2022/05/05 06:33:12;;;;;;;19.02;13.30;;;;;;;12.52;80.07;101332.94;7393835;19;20018;-65
2022/05/05 06:35:40;;;;;;;17.45;12.60;;;;;;;12.55;80.00;101334.63;7394958;19;20021;-65
2022/05/05 06:38:09;;;;;;;14.27;11.70;;;;;;;12.59;79.90;101333.66;7393658;19;20023;-65
2022/05/05 06:40:43;;;;;;;16.33;11.38;;;;;;;12.67;80.01;101333.50;7393528;19;20444;-65
2022/05/05 06:43:14;;;;;;;13.05;10.02;;;;;;;12.76;79.75;101335.06;7393404;19;20026;-65
2022/05/05 06:45:42;;;;;;;15.68;10.93;;;;;;;12.83;79.33;101332.25;7394447;19;20499;-65
2022/05/05 06:48:12;;;;;;;15.18;10.02;;;;;;;12.90;78.98;101343.53;7393108;19;20014;-65
2022/05/05 06:50:40;;;;;;;12.90;10.00;;;;;;;12.99;78.70;101347.72;7393262;19;20537;-65
2022/05/05 06:53:08;;;;;;;15.23;10.32;;;;;;;13.05;78.25;101339.69;7395082;19;20019;-65
2022/05/05 06:55:37;;;;;;;13.50;9.82;;;;;;;13.12;78.10;101345.72;7393509;19;20018;-65
2022/05/05 06:58:05;;;;;;;13.60;9.45;;;;;;;13.12;77.46;101343.94;7395094;19;20035;-65
2022/05/05 07:03:16;;;;;;;12.00;9.15;;;;;;;13.16;77.06;101350.00;7392810;19;20014;-65
2022/05/05 07:05:42;;;;;;;11.80;9.50;;;;;;;13.13;76.88;101350.94;7394596;19;20015;-65
2022/05/05 07:08:10;;;;;;;13.45;9.68;;;;;;;13.11;77.02;101350.09;7392517;19;20030;-65
2022/05/05 07:13:19;;;;;;;11.40;9.00;;;;;;;13.08;76.76;101352.81;7394771;19;20006;-65
2022/05/05 07:15:50;;;;;;;13.02;9.60;;;;;;;13.08;76.76;101354.56;7392524;19;20026;-65
2022/05/05 07:18:18;;;;;;;15.43;9.70;;;;;;;13.09;76.76;101351.03;7392854;19;20403;-66
2022/05/05 07:20:46;;;;;;;13.00;9.82;;;;;;;13.12;76.67;101351.81;7391938;19;20018;-65
2022/05/05 07:23:15;;;;;;;11.20;9.35;;;;;;;13.15;76.62;101354.38;7391818;19;20032;-64
2022/05/05 07:25:44;;;;;;;17.50;9.50;;;;;;;13.18;76.46;101354.31;7391912;19;20026;-64
2022/05/05 07:28:13;;;;;;;13.40;10.10;;;;;;;13.24;76.33;101347.19;7392774;19;20023;-64
2022/05/05 07:30:41;;;;;;;11.57;9.02;;;;;;;13.28;76.28;101354.09;7395457;19;20035;-64
2022/05/05 07:33:12;;;;;;;12.10;8.45;;;;;;;13.31;75.29;101359.31;7401370;19;20019;-65
2022/05/05 07:35:40;;;;;;;11.43;8.57;;;;;;;13.32;74.71;101367.19;7401825;19;20018;-64
2022/05/05 07:38:08;;;;;;;11.73;9.90;;;;;;;13.33;74.98;101355.75;7398429;19;20014;-65
2022/05/05 07:40:37;;;;;;;13.75;9.88;;;;;;;13.38;75.07;101360.06;7399566;19;20019;-64
2022/05/05 07:43:07;;;;;;;13.88;8.38;;;;;;;13.44;74.00;101359.91;7401238;19;20031;-65
2022/05/05 07:45:35;;;;;;;10.93;8.18;;;;;;;13.51;73.36;101356.25;7400449;19;20490;-63
2022/05/05 07:48:03;;;;;;;13.68;8.95;;;;;;;13.58;72.92;101356.94;7399162;19;20023;-64
2022/05/05 07:50:34;;;;;;;11.85;8.25;;;;;;;13.66;72.01;101360.25;7399569;19;20023;-64
2022/05/05 07:53:09;;;;;;;11.65;8.32;;;;;;;13.71;71.39;101366.31;7398457;19;20043;-64
2022/05/05 07:55:37;;;;;;;10.27;8.63;;;;;;;13.76;71.46;101364.41;7400962;19;20018;-65
2022/05/05 07:58:05;;;;;;;11.15;8.38;;;;;;;13.84;71.25;101370.34;7397926;19;20498;-64
2022/05/05 08:00:33;;;;;;;10.73;8.05;;;;;;;13.91;71.30;101364.91;7399230;19;20382;-64
2022/05/05 08:03:02;;;;;;;10.27;7.95;;;;;;;13.98;71.14;101361.22;7397975;19;20022;-64
2022/05/05 08:05:30;;;;;;;13.70;8.73;;;;;;;14.05;70.49;101368.06;7399083;19;20023;-64
2022/05/05 08:08:00;;;;;;;11.02;8.02;;;;;;;14.08;70.40;101367.09;7399494;19;20029;-64
2022/05/05 08:10:29;;;;;;;10.48;9.23;;;;;;;14.11;70.43;101361.75;7398690;19;20006;-64
2022/05/05 08:12:57;;;;;;;11.85;9.55;;;;;;;14.17;70.26;101361.59;7397342;19;20014;-65
2022/05/05 08:15:26;;;;;;;10.65;7.50;;;;;;;14.24;70.52;101367.56;7397767;19;20461;-65
2022/05/05 08:17:54;;;;;;;11.02;8.20;;;;;;;14.32;69.90;101360.31;7399896;19;20018;-65
2022/05/05 08:20:22;;;;;;;12.25;8.27;;;;;;;14.37;69.44;101363.69;7398850;19;20474;-65
2022/05/05 08:22:50;;;;;;;10.80;7.07;;;;;;;14.39;68.83;101367.13;7399326;19;20015;-65
2022/05/05 08:30:42;;;;;;;13.43;7.22;;;;;;;14.54;67.36;101379.06;7398573;19;20089;-65
2022/05/05 08:33:10;;;;;;;12.13;7.55;;;;;;;14.59;67.24;101381.56;7396754;19;20022;-65
2022/05/05 08:35:40;;;;;;;11.57;7.47;;;;;;;14.63;67.06;101378.81;7399554;19;20025;-65
2022/05/05 08:38:08;;;;;;;12.65;7.57;;;;;;;14.70;67.40;101387.44;7398979;19;20037;-64
2022/05/05 08:40:42;;;;;;;12.18;7.28;;;;;;;14.80;66.82;101390.69;7397083;19;20015;-64
2022/05/05 08:43:10;;;;;;;11.82;7.15;;;;;;;14.93;66.34;101388.56;7395227;19;20035;-65
2022/05/05 08:45:40;;;;;;;9.02;7.00;;;;;;;14.99;65.71;101388.38;7396784;19;20015;-65
2022/05/05 08:48:12;;;;;;;8.15;6.82;;;;;;;15.03;66.01;101395.28;7396585;19;20014;-64
2022/05/05 08:50:44;;;;;;;9.20;7.15;;;;;;;15.10;65.91;101396.84;7397993;19;20050;-65
2022/05/05 08:53:15;;;;;;;10.43;7.13;;;;;;;15.15;65.79;101394.94;7399365;19;20038;-66
2022/05/05 08:55:47;;;;;;;10.07;7.53;;;;;;;15.24;65.54;101396.41;7395864;19;20355;-64
2022/05/05 08:58:15;;;;;;;7.53;6.55;;;;;;;15.35;65.50;101390.78;7396609;19;20019;-64
2022/05/05 09:00:44;;;;;;;9.02;6.45;;;;;;;15.47;64.87;101395.69;7396335;19;20388;-64
2022/05/05 09:03:12;;;;;;;9.73;6.75;;;;;;;15.61;64.73;101399.69;7396194;19;20030;-64
2022/05/05 09:05:55;;;;;;;9.98;6.78;;;;;;;15.73;63.90;101396.66;7396237;19;20020;-64
2022/05/05 09:08:34;;;;;;;8.63;6.03;;;;;;;15.83;62.11;101396.34;7397006;19;20362;-64
2022/05/05 09:11:06;;;;;;;9.95;6.75;;;;;;;15.88;60.77;101405.00;7396335;19;20015;-64
2022/05/05 09:13:36;;;;;;;10.00;6.85;;;;;;;15.92;61.57;101406.63;7398484;19;20023;-64
2022/05/05 09:16:06;;;;;;;9.05;6.43;;;;;;;15.95;61.37;101401.25;7395138;19;20106;-65
2022/05/05 09:18:36;;;;;;;9.43;5.82;;;;;;;16.03;61.48;101398.34;7395982;19;20038;-65
2022/05/05 09:21:06;;;;;;;10.00;5.72;;;;;;;16.07;60.51;101403.44;7395257;19;20025;-65
2022/05/05 09:23:36;;;;;;;8.43;5.82;;;;;;;16.06;59.08;101416.75;7395644;19;20083;-63
2022/05/05 09:26:08;;;;;;;10.43;6.57;;;;;;;16.02;58.68;101412.47;7398303;19;20017;-64
2022/05/05 09:28:38;;;;;;;10.90;7.28;;;;;;;16.01;59.08;101406.34;7396029;19;20062;-64
2022/05/05 09:31:08;;;;;;;8.00;5.32;;;;;;;16.02;58.46;101407.19;7394968;19;20378;-66
2022/05/05 09:33:45;;;;;;;13.02;5.47;;;;;;;15.99;56.75;101405.50;7396191;19;20018;-65
2022/05/05 09:36:14;;;;;;;11.02;5.30;;;;;;;15.96;57.45;101411.78;7397866;19;20035;-66
2022/05/05 09:38:53;;;;;;;11.27;6.53;;;;;;;15.98;56.42;101411.72;7395383;19;20019;-64
2022/05/05 09:41:25;;;;;;;9.60;6.20;;;;;;;16.05;57.42;101421.19;7395280;19;20482;-66
2022/05/05 09:43:56;;;;;;;7.80;5.35;;;;;;;16.16;57.49;101419.94;7395447;19;20018;-67
2022/05/05 09:46:34;;;;;;;10.30;6.05;;;;;;;16.29;55.24;101424.75;7394799;19;20485;-65
2022/05/05 09:49:13;;;;;;;8.57;5.30;;;;;;;16.37;55.57;101421.84;7395157;19;20023;-65
2022/05/05 09:57:39;;;;;;;7.85;5.57;;;;;;;16.44;55.16;101433.06;7395121;19;20050;-65
2022/05/05 10:00:23;;;;;;;10.45;5.50;;;;;;;16.70;55.11;101424.19;7394812;19;20489;-65
2022/05/05 10:05:36;;;;;;;10.70;6.15;;;;;;;16.89;53.93;101426.16;7396615;19;20014;-64
2022/05/05 10:08:04;;;;;;;7.38;5.55;;;;;;;16.91;53.32;101430.53;7393976;19;20022;-65
2022/05/05 10:10:33;;;;;;;10.20;6.28;;;;;;;16.90;52.37;101430.56;7393128;19;20014;-64
2022/05/05 10:13:04;;;;;;;7.95;5.10;;;;;;;16.89;51.73;101429.69;7393680;19;20018;-64
2022/05/05 10:15:35;;;;;;;7.05;5.38;;;;;;;16.93;51.66;101430.47;7395551;19;20015;-66
2022/05/05 10:18:03;;;;;;;9.40;6.15;;;;;;;17.03;52.09;101423.88;7394832;19;20477;-65
2022/05/05 10:20:32;;;;;;;7.90;5.13;;;;;;;17.13;51.08;101432.38;7395015;19;20500;-66
2022/05/05 10:23:21;;;;;;;7.38;5.38;;;;;;;17.18;50.46;101432.19;7395256;19;20504;-65
2022/05/05 10:25:54;;;;;;;8.00;5.35;;;;;;;17.20;51.41;101433.88;7395129;19;20469;-65
2022/05/05 10:28:47;;;;;;;9.45;5.88;;;;;;;17.24;50.38;101432.81;7395484;19;20030;-65
2022/05/05 10:31:48;;;;;;;9.87;5.30;;;;;;;17.35;50.21;101429.75;7393721;19;20054;-65
2022/05/05 10:34:19;;;;;;;7.50;5.00;;;;;;;17.41;49.80;101429.50;7396152;19;20447;-66
2022/05/05 10:37:05;;;;;;;7.50;5.15;;;;;;;17.43;47.88;101430.28;7395953;19;20015;-67
2022/05/05 10:39:44;;;;;;;9.40;5.68;;;;;;;17.39;48.98;101427.84;7395397;19;20391;-66
2022/05/05 10:45:22;;;;;;;10.85;5.65;;;;;;;17.21;48.52;101438.25;7371438;19;20018;-65
2022/05/05 10:48:35;;;;;;;7.78;4.85;;;;;;;17.16;49.45;101424.31;7394315;19;20010;-66
2022/05/05 10:51:08;;;;;;;13.52;6.50;;;;;;;17.22;50.17;101433.78;7397017;19;20019;-65
2022/05/05 10:53:42;;;;;;;10.10;5.67;;;;;;;17.29;50.14;101427.34;7395151;19;20058;-64
2022/05/05 10:56:29;;;;;;;8.63;5.68;;;;;;;17.47;49.11;101422.25;7393798;19;20022;-65
2022/05/05 10:59:08;;;;;;;9.18;5.22;;;;;;;17.65;48.67;101425.94;7394217;19;20022;-65
2022/05/05 11:02:02;;;;;;;6.30;5.38;;;;;;;17.74;48.60;101423.78;7393343;19;20019;-65
2022/05/05 11:04:33;;;;;;;6.68;5.07;;;;;;;17.69;48.18;101433.72;7390715;19;20011;-65
2022/05/05 11:07:36;;;;;;;8.13;5.60;;;;;;;17.66;47.47;101436.47;7393975;19;20022;-65
2022/05/05 11:10:08;;;;;;;7.80;5.45;;;;;;;17.62;48.64;101440.19;7393627;19;20019;-66
2022/05/05 11:12:38;;;;;;;11.35;5.75;;;;;;;17.59;48.47;101429.69;7394801;19;20039;-65
2022/05/05 11:23:24;;;;;;;8.38;6.07;;;;;;;18.17;47.25;101436.19;7392590;19;20029;-66
2022/05/05 11:25:53;;;;;;;8.40;5.30;;;;;;;18.32;46.53;101437.34;7392336;19;20031;-65
2022/05/05 11:28:22;;;;;;;7.50;5.53;;;;;;;18.43;46.72;101434.22;7390203;19;20492;-66
2022/05/05 11:30:50;;;;;;;11.02;6.47;;;;;;;18.55;46.02;101442.50;7393468;19;20014;-65
2022/05/05 11:33:22;;;;;;;10.02;5.90;;;;;;;18.63;45.68;101436.84;7392986;19;20023;-66
2022/05/05 11:36:03;;;;;;;9.15;5.70;;;;;;;18.64;44.74;101427.06;7390688;19;20011;-66
2022/05/05 11:38:32;;;;;;;7.88;5.47;;;;;;;18.69;45.83;101419.75;7390782;19;20495;-66
2022/05/05 11:41:06;;;;;;;7.50;5.43;;;;;;;18.76;44.80;101433.66;7393711;19;20019;-65
2022/05/05 11:46:17;;;;;;;8.25;4.72;;;;;;;18.82;45.25;101420.94;7391908;19;20100;-64
2022/05/05 11:48:45;;;;;;;11.35;5.75;;;;;;;18.91;45.43;101425.00;7391322;19;20014;-64
2022/05/05 11:51:23;;;;;;;11.27;6.22;;;;;;;19.01;43.83;101423.63;7393896;19;20022;-65
2022/05/05 11:53:51;;;;;;;7.47;5.53;;;;;;;19.17;42.38;101430.88;7392094;19;20011;-65
2022/05/05 11:56:19;;;;;;;7.03;5.13;;;;;;;19.33;42.05;101412.41;7393735;19;20025;-65
2022/05/05 12:01:41;;;;;;;9.77;4.88;;;;;;;19.71;42.09;101412.34;7393722;19;20051;-64
2022/05/05 12:04:12;;;;;;;6.88;4.30;;;;;;;19.90;41.88;101414.97;7391640;19;20025;-64
2022/05/05 12:06:43;;;;;;;11.55;4.78;;;;;;;19.96;40.88;101419.97;7393801;19;20019;-65
2022/05/05 12:09:12;;;;;;;7.55;5.35;;;;;;;19.95;40.34;101418.25;7392858;19;20501;-64
2022/05/05 12:11:40;;;;;;;10.18;5.13;;;;;;;19.93;40.38;101416.59;7393265;19;20091;-64
2022/05/05 12:14:11;;;;;;;7.13;5.25;;;;;;;19.92;40.40;101414.91;7391204;19;20035;-66
2022/05/05 12:16:40;;;;;;;7.15;4.63;;;;;;;19.97;40.62;101408.41;7397353;19;20100;-65
2022/05/05 12:19:13;;;;;;;9.95;4.65;;;;;;;20.08;39.47;101402.53;7400339;19;20485;-65
2022/05/05 12:21:56;;;;;;;6.90;4.90;;;;;;;20.20;38.52;101401.03;7397829;19;20025;-65